createdAt,value
2023-03-19T00:02:34.931Z,78.00
2023-03-19T00:07:39.500Z,70.00
2023-03-19T00:12:42.688Z,73.00
2023-03-19T00:17:45.863Z,61.67
2023-03-19T00:22:49.637Z,59.00
2023-03-19T00:27:54.541Z,61.00
2023-03-19T00:32:57.909Z,66.50
2023-03-19T00:38:01.197Z,56.00
2023-03-19T00:43:04.548Z,68.00
2023-03-19T00:48:08.942Z,55.00
2023-03-19T00:53:12.069Z,61.50
2023-03-19T00:58:15.407Z,75.00
2023-03-19T01:03:18.608Z,61.00
2023-03-19T01:08:21.794Z,40.67
2023-03-19T01:13:25.120Z,51.00
2023-03-19T01:18:28.491Z,53.00
2023-03-19T01:23:31.770Z,54.00
2023-03-19T01:28:35.166Z,37.00
2023-03-19T01:33:39.046Z,45.00
2023-03-19T01:39:08.720Z,60.67
2023-03-19T01:44:31.860Z,58.00
2023-03-19T01:49:56.811Z,67.00
2023-03-19T01:55:04.235Z,58.67
2023-03-19T02:00:30.857Z,60.50
2023-03-19T02:05:36.111Z,56.00
2023-03-19T02:10:44.148Z,55.00
2023-03-19T02:15:48.284Z,62.00
2023-03-19T02:21:02.575Z,66.50
2023-03-19T02:26:17.340Z,70.00
2023-03-19T02:31:21.861Z,59.50
2023-03-19T02:36:38.563Z,61.00
2023-03-19T02:41:43.794Z,58.00
2023-03-19T02:46:47.851Z,53.33
2023-03-19T02:51:51.889Z,79.00
2023-03-19T02:56:55.483Z,61.00
2023-03-19T03:01:59.367Z,48.00
2023-03-19T03:07:03.977Z,70.00
2023-03-19T03:12:09.135Z,64.00
2023-03-19T03:17:12.400Z,66.00
2023-03-19T03:22:15.701Z,61.00
2023-03-19T03:27:18.867Z,61.00
2023-03-19T03:32:22.129Z,84.00
2023-03-19T03:37:25.417Z,85.50
2023-03-19T03:42:28.860Z,95.67
2023-03-19T03:47:32.539Z,95.33
2023-03-19T03:52:37.264Z,96.00
2023-03-19T03:57:40.781Z,90.75
2023-03-19T04:02:44.047Z,94.00
2023-03-19T04:07:50.365Z,95.00
2023-03-19T04:12:54.137Z,90.00
2023-03-19T04:17:58.291Z,82.00
2023-03-19T04:23:02.391Z,101.00
2023-03-19T04:28:06.065Z,93.50
2023-03-19T04:33:11.129Z,88.00
2023-03-19T04:38:15.049Z,83.00
2023-03-19T04:43:18.721Z,77.50
2023-03-19T04:48:22.421Z,70.00
2023-03-19T04:53:29.724Z,73.00
2023-03-19T04:58:33.002Z,67.67
2023-03-19T05:03:37.688Z,64.50
2023-03-19T05:08:41.566Z,74.50
2023-03-19T05:13:45.141Z,82.50
2023-03-19T05:18:49.126Z,70.67
2023-03-19T05:23:55.055Z,52.00
2023-03-19T05:28:58.713Z,58.50
2023-03-19T05:34:09.777Z,72.00
2023-03-19T05:39:13.555Z,68.50
2023-03-19T05:44:19.087Z,68.00
2023-03-19T05:49:32.886Z,61.00
2023-03-19T05:54:36.343Z,69.00
2023-03-19T05:59:44.578Z,68.67
2023-03-19T06:05:14.015Z,73.33
2023-03-19T06:10:17.495Z,69.00
2023-03-19T06:15:22.691Z,76.00
2023-03-19T06:20:47.424Z,66.00
2023-03-19T06:25:52.214Z,69.50
2023-03-19T06:30:57.132Z,71.00
2023-03-19T06:36:20.646Z,80.00
2023-03-19T06:41:25.386Z,85.00
2023-03-19T06:46:31.556Z,79.00
2023-03-19T06:51:34.991Z,79.67
2023-03-19T06:56:46.575Z,75.00
2023-03-19T07:01:49.881Z,77.00
2023-03-19T07:06:53.073Z,77.50
2023-03-19T07:12:43.755Z,85.00
2023-03-19T07:24:00.048Z,71.00
2023-03-19T07:29:03.180Z,76.00
2023-03-19T07:34:07.115Z,76.50
2023-03-19T07:39:11.238Z,50.00
2023-03-19T07:44:16.145Z,36.50
2023-03-19T07:49:19.542Z,15.00
2023-03-19T07:54:24.050Z,12.00
2023-03-19T07:59:27.715Z,13.00
2023-03-19T08:04:30.893Z,14.00
2023-03-19T08:09:34.820Z,15.00
2023-03-19T08:14:38.189Z,14.00
2023-03-19T08:19:41.511Z,53.00
2023-03-19T08:24:44.831Z,66.50
2023-03-19T08:29:48.041Z,69.50
2023-03-19T08:34:51.578Z,56.50
2023-03-19T08:39:54.882Z,54.50
2023-03-19T08:44:58.024Z,47.00
2023-03-19T08:50:01.654Z,60.50
2023-03-19T08:55:05.657Z,61.00
2023-03-19T09:00:09.593Z,58.00
2023-03-19T09:05:12.860Z,56.00
2023-03-19T09:10:16.086Z,52.00
2023-03-19T09:15:19.287Z,51.33
2023-03-19T09:20:22.581Z,47.50
2023-03-19T09:25:25.957Z,35.00
2023-03-19T09:30:29.294Z,36.00
2023-03-19T09:35:33.806Z,35.00
2023-03-19T09:40:42.445Z,39.00
2023-03-19T09:45:47.095Z,31.00
2023-03-19T09:50:52.027Z,22.00
2023-03-19T09:55:56.682Z,27.33
2023-03-19T10:01:01.209Z,30.00
2023-03-19T10:06:22.485Z,28.00
2023-03-19T10:11:31.779Z,9.00
2023-03-19T10:16:37.821Z,9.50
2023-03-19T10:21:48.802Z,15.00
2023-03-19T10:26:59.731Z,12.00
2023-03-19T10:32:10.785Z,10.00
2023-03-19T10:37:14.023Z,10.00
2023-03-19T10:42:48.622Z,13.67
2023-03-19T10:47:52.453Z,12.67
2023-03-19T10:53:07.017Z,12.00
2023-03-19T10:58:24.036Z,14.00
2023-03-19T11:03:39.360Z,11.00
2023-03-19T11:08:42.682Z,12.50
2023-03-19T11:13:47.488Z,13.33
2023-03-19T11:18:50.691Z,13.00
2023-03-19T11:24:00.128Z,14.00
2023-03-19T11:29:05.002Z,14.00
2023-03-19T11:34:34.193Z,12.50
2023-03-19T11:39:57.004Z,16.00
2023-03-19T11:45:18.698Z,14.33
2023-03-19T11:50:22.345Z,14.33
2023-03-19T11:55:37.204Z,15.00
2023-03-19T12:00:57.827Z,15.00
2023-03-19T12:06:31.389Z,18.00
2023-03-19T12:12:03.776Z,15.00
2023-03-19T12:17:09.811Z,13.00
2023-03-19T12:22:28.224Z,16.00
2023-03-19T12:27:40.849Z,15.00
2023-03-19T12:32:54.274Z,17.00
2023-03-19T12:38:04.683Z,14.00
2023-03-19T12:43:18.651Z,17.00
2023-03-19T12:48:30.249Z,17.00
2023-03-19T12:54:20.104Z,12.00
2023-03-19T13:00:01.014Z,16.00
2023-03-19T13:05:23.617Z,19.00
2023-03-19T13:10:27.085Z,11.00
2023-03-19T13:15:41.462Z,15.00
2023-03-19T13:21:15.838Z,13.33
2023-03-19T13:26:19.126Z,13.00
2023-03-19T13:31:25.746Z,17.33
2023-03-19T13:36:34.371Z,19.00
2023-03-19T13:41:42.060Z,10.00
2023-03-19T13:46:45.752Z,13.50
2023-03-19T13:51:49.414Z,12.00
2023-03-19T13:57:01.168Z,14.67
2023-03-19T14:02:25.549Z,16.00
2023-03-19T14:07:41.385Z,14.50
2023-03-19T14:12:45.559Z,14.00
2023-03-19T14:17:51.515Z,17.50
2023-03-19T14:23:11.444Z,14.00
2023-03-19T14:28:19.096Z,17.00
2023-03-19T14:33:44.796Z,11.67
2023-03-19T14:38:57.572Z,12.00
2023-03-19T14:44:26.633Z,12.00
2023-03-19T14:50:03.858Z,15.00
2023-03-19T14:55:14.150Z,21.00
2023-03-19T15:00:19.457Z,14.50
2023-03-19T15:05:28.782Z,11.00
2023-03-19T15:10:55.085Z,17.33
2023-03-19T15:16:10.971Z,11.50
2023-03-19T15:21:14.270Z,15.00
2023-03-19T15:26:33.391Z,38.00
2023-03-19T15:31:52.725Z,24.00
2023-03-19T15:37:05.111Z,12.00
2023-03-19T15:42:09.290Z,16.33
2023-03-19T15:47:16.961Z,22.00
2023-03-19T15:52:20.634Z,22.00
2023-03-19T15:57:25.666Z,16.00
2023-03-19T16:02:34.428Z,16.00
2023-03-19T16:07:43.729Z,15.00
2023-03-19T16:12:49.915Z,18.67
2023-03-19T16:17:53.425Z,24.00
2023-03-19T16:22:58.849Z,18.00
2023-03-19T16:28:06.749Z,22.00
2023-03-19T16:33:13.444Z,27.50
2023-03-19T16:38:28.457Z,25.50
2023-03-19T16:43:34.526Z,27.00
2023-03-19T16:48:38.234Z,19.00
2023-03-19T16:53:41.582Z,24.50
2023-03-19T16:58:45.517Z,31.50
2023-03-19T17:03:49.961Z,30.00
2023-03-19T17:08:53.203Z,29.67
2023-03-19T17:14:01.266Z,39.00
2023-03-19T17:19:12.343Z,32.00
2023-03-19T17:24:18.581Z,38.50
2023-03-19T17:29:26.179Z,34.00
2023-03-19T17:34:32.258Z,33.33
2023-03-19T17:39:36.118Z,31.00
2023-03-19T17:44:39.636Z,30.00
2023-03-19T17:49:46.509Z,32.00
2023-03-19T17:54:49.968Z,42.00
2023-03-19T17:59:53.299Z,28.00
2023-03-19T18:04:56.702Z,42.33
2023-03-19T18:10:00.208Z,46.00
2023-03-19T18:15:03.876Z,47.00
2023-03-19T18:20:07.586Z,49.00
2023-03-19T18:25:20.181Z,42.00
2023-03-19T18:30:24.124Z,42.00
2023-03-19T18:35:32.930Z,44.33
2023-03-19T18:40:40.322Z,57.00
2023-03-19T18:45:44.955Z,59.00
2023-03-19T18:50:48.715Z,62.00
2023-03-19T18:55:52.515Z,55.50
2023-03-19T19:00:58.035Z,60.00
2023-03-19T19:06:01.519Z,66.00
2023-03-19T19:11:06.789Z,54.00
2023-03-19T19:16:25.042Z,57.33
2023-03-19T19:21:29.064Z,63.00
2023-03-19T19:26:32.480Z,55.00
2023-03-19T19:31:37.148Z,68.00
2023-03-19T19:36:40.723Z,65.00
2023-03-19T19:41:44.643Z,64.50
2023-03-19T19:46:53.592Z,63.00
2023-03-19T19:51:56.896Z,61.50
2023-03-19T19:57:01.659Z,72.00
2023-03-19T20:02:23.428Z,81.00
2023-03-19T20:07:27.459Z,80.00
2023-03-19T20:12:43.449Z,79.67
2023-03-19T20:17:57.100Z,82.00
2023-03-19T20:23:03.730Z,79.00
2023-03-19T20:28:11.620Z,88.33
2023-03-19T20:33:16.467Z,87.00
2023-03-19T20:38:23.503Z,79.00
2023-03-19T20:43:28.954Z,72.00
2023-03-19T20:49:15.040Z,80.33
2023-03-19T20:54:20.062Z,79.50
2023-03-19T20:59:58.609Z,82.00
2023-03-19T21:05:07.843Z,84.33
2023-03-19T21:10:28.535Z,74.00
2023-03-19T21:16:26.613Z,61.00
2023-03-19T21:22:03.813Z,78.67
2023-03-19T21:27:08.447Z,56.00
2023-03-19T21:32:13.873Z,56.00
2023-03-19T21:37:24.349Z,56.00
2023-03-19T21:44:06.527Z,46.00
2023-03-19T21:49:30.700Z,54.00
2023-03-19T21:54:43.942Z,52.00
2023-03-19T21:59:49.204Z,58.00
2023-03-19T22:04:52.577Z,58.00
2023-03-19T22:09:59.369Z,73.50
2023-03-19T22:16:23.450Z,52.33
2023-03-19T22:22:12.880Z,57.00
2023-03-19T22:27:24.962Z,54.50
2023-03-19T22:33:16.308Z,55.00
2023-03-19T22:38:28.983Z,56.50
2023-03-19T22:44:44.565Z,53.00
2023-03-19T22:51:26.068Z,52.00
2023-03-19T22:56:29.288Z,61.33
2023-03-19T23:01:44.575Z,68.00
2023-03-19T23:06:50.778Z,64.00
2023-03-19T23:12:28.963Z,66.33
2023-03-19T23:17:32.222Z,68.00
